Time;durP1;ratioP1;P1;durP2;ratioP2;P2;SDS_P1;SDS_P2;PMS_P1;PMS_P2;Temp;Humidity;BMP_temperature;BMP_pressure;BME280_temperature;BME280_humidity;BME280_pressure;Samples;Min_cycle;Max_cycle;Signal;HPM_P1;HPM_P2
2023/03/27 00:00:45;;;;;;;1.45;0.60;;;;;;;16.91;26.79;102181.34;5093042;28;20553;-40
2023/03/27 00:03:14;;;;;;;7.32;1.10;;;;;;;16.80;28.98;102178.25;5090684;28;20062;-40
2023/03/27 00:05:41;;;;;;;1.98;0.80;;;;;;;16.77;29.37;102184.09;5092764;28;20028;-40
2023/03/27 00:08:11;;;;;;;2.40;0.82;;;;;;;16.75;29.57;102177.25;5092299;28;20114;-40
2023/03/27 00:10:38;;;;;;;1.30;0.60;;;;;;;16.72;29.28;102174.97;5092184;28;20111;-40
2023/03/27 00:13:07;;;;;;;1.25;0.60;;;;;;;16.66;27.46;102178.47;5092536;28;20040;-42
2023/03/27 00:15:35;;;;;;;1.52;0.68;;;;;;;16.58;29.71;102179.56;5092660;28;20027;-40
2023/03/27 00:18:07;;;;;;;2.17;0.75;;;;;;;16.41;29.74;102187.31;5092562;28;20396;-41
2023/03/27 00:20:36;;;;;;;1.88;0.95;;;;;;;16.32;29.20;102181.31;5083166;28;20483;-40
2023/03/27 00:23:03;;;;;;;2.25;0.98;;;;;;;16.15;30.34;102192.75;5092100;28;20395;-40
2023/03/27 00:25:30;;;;;;;5.80;1.02;;;;;;;15.92;31.85;102185.91;5092507;28;20578;-41
2023/03/27 00:28:00;;;;;;;4.97;1.45;;;;;;;15.93;32.02;102190.28;5091068;28;20123;-40
2023/03/27 00:30:27;;;;;;;2.60;1.10;;;;;;;15.87;33.16;102180.31;5092299;28;20111;-40
2023/03/27 00:32:54;;;;;;;6.70;1.35;;;;;;;15.84;32.74;102181.56;5091206;28;20172;-40
2023/03/27 00:35:22;;;;;;;3.17;0.90;;;;;;;15.75;31.57;102176.59;5091322;28;20046;-40
2023/03/27 00:37:49;;;;;;;1.55;1.08;;;;;;;15.53;32.21;102184.84;5092203;28;20103;-40
2023/03/27 00:40:19;;;;;;;5.00;1.02;;;;;;;15.40;32.83;102175.91;5091005;28;20116;-40
2023/03/27 00:42:51;;;;;;;2.28;0.90;;;;;;;15.42;32.24;102179.22;5092116;28;20480;-41
2023/03/27 00:45:19;;;;;;;3.05;0.82;;;;;;;15.53;32.25;102167.81;5088536;28;20130;-43
2023/03/27 00:47:52;;;;;;;1.73;1.00;;;;;;;15.61;33.22;102175.72;5069384;28;20047;-42
2023/03/27 00:50:23;;;;;;;1.98;1.10;;;;;;;15.49;33.93;102178.22;5076848;28;20032;-43
2023/03/27 00:52:57;;;;;;;3.40;1.10;;;;;;;15.51;34.58;102181.53;5075990;28;20032;-40
2023/03/27 00:55:27;;;;;;;2.47;1.27;;;;;;;15.42;35.77;102177.34;5091346;28;20054;-41
2023/03/27 00:57:59;;;;;;;1.98;1.13;;;;;;;15.36;35.23;102182.75;5087267;28;20028;-40
2023/03/27 01:00:26;;;;;;;6.15;1.80;;;;;;;15.29;36.37;102177.34;5071384;28;20024;-40
2023/03/27 01:02:54;;;;;;;2.22;1.13;;;;;;;15.30;36.90;102179.81;5091455;28;20043;-41
2023/03/27 01:05:23;;;;;;;2.67;1.10;;;;;;;15.21;36.26;102186.47;5082494;28;20049;-41
2023/03/27 01:07:50;;;;;;;1.80;1.02;;;;;;;15.24;36.92;102185.22;5071793;28;20056;-41
2023/03/27 01:10:18;;;;;;;1.60;0.88;;;;;;;15.11;35.88;102195.97;5071629;28;20622;-41
2023/03/27 01:13:23;;;;;;;2.72;1.00;;;;;;;14.73;35.59;102201.84;5071664;28;20128;-40
2023/03/27 01:16:03;;;;;;;1.85;1.02;;;;;;;14.45;36.56;102199.19;5071611;28;20020;-40
2023/03/27 01:18:41;;;;;;;3.33;0.93;;;;;;;14.25;36.82;102202.56;5071425;28;20028;-40
2023/03/27 01:21:46;;;;;;;1.92;0.70;;;;;;;14.08;37.27;102195.00;5071470;28;20028;-41
2023/03/27 01:24:39;;;;;;;7.47;1.23;;;;;;;13.94;36.50;102192.22;5071536;28;20032;-41
2023/03/27 01:27:05;;;;;;;2.70;0.85;;;;;;;13.73;36.84;102192.25;5063577;28;20109;-41
2023/03/27 01:29:58;;;;;;;1.92;0.70;;;;;;;13.75;37.74;102198.25;5093769;28;20531;-41
2023/03/27 01:32:48;;;;;;;2.10;1.13;;;;;;;13.65;36.87;102197.75;5089028;28;20039;-41
2023/03/27 01:35:48;;;;;;;3.70;1.10;;;;;;;13.60;37.57;102192.09;5091595;28;20024;-42
2023/03/27 01:38:52;;;;;;;4.88;0.90;;;;;;;13.39;38.65;102196.47;5099999;28;20028;-41
2023/03/27 01:41:29;;;;;;;2.63;1.05;;;;;;;13.29;38.75;102193.25;5095383;28;20043;-41
2023/03/27 01:44:04;;;;;;;3.38;1.05;;;;;;;13.25;38.28;102189.28;5070220;28;20033;-41
2023/03/27 01:46:55;;;;;;;3.90;1.27;;;;;;;13.09;38.55;102201.06;5071314;28;20028;-41
2023/03/27 01:49:33;;;;;;;2.45;1.23;;;;;;;13.00;38.52;102196.03;5077984;28;20028;-41
2023/03/27 01:52:07;;;;;;;2.35;1.10;;;;;;;13.00;38.18;102201.41;5091342;28;20024;-41
2023/03/27 01:54:45;;;;;;;2.03;1.00;;;;;;;12.83;39.03;102198.91;5093998;28;20422;-41
2023/03/27 01:57:21;;;;;;;2.45;1.27;;;;;;;12.72;39.84;102203.94;5114460;28;20471;-41
2023/03/27 02:00:10;;;;;;;4.88;1.20;;;;;;;12.66;38.89;102192.09;5110564;28;20036;-41
2023/03/27 02:02:40;;;;;;;2.10;0.80;;;;;;;12.35;39.98;102187.72;5074549;28;20453;-41
2023/03/27 02:05:25;;;;;;;2.85;0.80;;;;;;;12.34;39.91;102187.91;5077524;28;20041;-41
2023/03/27 02:07:58;;;;;;;2.83;1.10;;;;;;;12.17;40.48;102198.00;5077002;28;20024;-41
2023/03/27 02:10:33;;;;;;;2.58;1.40;;;;;;;11.92;41.29;102199.25;5094343;28;20032;-41
2023/03/27 02:13:12;;;;;;;3.83;1.20;;;;;;;12.01;41.20;102190.94;5095200;28;20594;-41
2023/03/27 02:15:41;;;;;;;3.78;1.08;;;;;;;11.85;40.56;102201.81;5095350;28;20391;-41
2023/03/27 02:18:17;;;;;;;4.80;2.35;;;;;;;11.94;40.08;102192.69;5095045;28;20058;-41
2023/03/27 02:20:44;;;;;;;5.50;3.28;;;;;;;11.86;40.12;102196.25;5083258;28;20028;-41
2023/03/27 02:23:11;;;;;;;15.10;7.20;;;;;;;11.80;40.20;102204.19;5074306;28;20491;-42
2023/03/27 02:25:40;;;;;;;13.43;8.98;;;;;;;11.87;40.08;102205.16;5079123;28;20035;-41
2023/03/27 02:28:34;;;;;;;8.40;5.53;;;;;;;11.87;40.13;102210.50;5094897;28;20024;-41
2023/03/27 02:31:24;;;;;;;5.10;3.47;;;;;;;11.61;40.65;102217.06;5074336;28;20477;-47
2023/03/27 02:34:08;;;;;;;6.07;3.10;;;;;;;11.64;40.43;102218.53;5074464;28;20423;-41
2023/03/27 02:36:56;;;;;;;8.25;2.70;;;;;;;11.76;39.81;102214.41;5092143;28;20081;-41
2023/03/27 02:39:43;;;;;;;6.38;2.88;;;;;;;11.62;40.34;102216.06;5074293;28;20028;-41
2023/03/27 02:42:25;;;;;;;6.25;2.53;;;;;;;11.44;40.88;102220.88;5086065;28;20081;-40
2023/03/27 02:45:10;;;;;;;3.20;1.30;;;;;;;11.32;41.18;102217.75;5094245;28;20032;-40
2023/03/27 02:47:41;;;;;;;4.57;1.30;;;;;;;11.35;41.59;102228.13;5078489;28;20388;-40
2023/03/27 02:50:21;;;;;;;4.78;1.60;;;;;;;11.23;41.78;102221.50;5073902;28;20488;-40
2023/03/27 02:52:53;;;;;;;4.75;1.42;;;;;;;11.21;41.66;102220.00;5071588;28;20047;-41
2023/03/27 02:55:32;;;;;;;3.78;1.27;;;;;;;10.97;41.75;102221.81;5075258;28;20438;-40
2023/03/27 02:58:04;;;;;;;4.35;2.53;;;;;;;10.82;40.94;102224.38;5079648;28;20032;-41
2023/03/27 03:00:38;;;;;;;5.72;2.00;;;;;;;10.57;39.70;102222.81;5084728;28;20036;-41
2023/03/27 03:03:30;;;;;;;7.43;2.05;;;;;;;10.56;40.14;102224.66;5079760;28;20084;-41
2023/03/27 03:05:57;;;;;;;2.90;1.35;;;;;;;10.64;40.22;102228.31;5073938;28;20449;-41
2023/03/27 03:08:29;;;;;;;2.60;1.05;;;;;;;10.53;40.43;102229.50;5084166;28;20381;-41
2023/03/27 03:11:01;;;;;;;2.92;1.00;;;;;;;10.63;39.97;102229.31;5093891;28;20088;-41
2023/03/27 03:13:27;;;;;;;4.38;1.00;;;;;;;10.60;39.77;102233.16;5093683;28;20066;-41
2023/03/27 03:15:54;;;;;;;3.15;1.20;;;;;;;10.74;40.20;102237.81;5093905;28;20032;-41
2023/03/27 03:18:20;;;;;;;2.28;1.08;;;;;;;10.63;40.60;102240.03;5093836;28;20012;-42
2023/03/27 03:20:46;;;;;;;7.22;1.10;;;;;;;10.72;40.45;102245.19;5102133;28;20054;-42
2023/03/27 03:23:12;;;;;;;2.72;1.25;;;;;;;10.48;41.49;102250.59;5113756;28;20108;-41
2023/03/27 03:25:39;;;;;;;4.18;1.10;;;;;;;10.87;40.20;102244.44;5114092;28;20030;-41
2023/03/27 03:28:07;;;;;;;2.72;1.30;;;;;;;10.71;40.95;102251.53;5114104;28;20468;-41
2023/03/27 03:30:33;;;;;;;2.10;1.05;;;;;;;10.53;41.61;102245.56;5093693;28;20115;-41
2023/03/27 03:32:59;;;;;;;2.70;0.95;;;;;;;10.58;43.03;102251.25;5093471;28;20032;-41
2023/03/27 03:35:26;;;;;;;7.05;1.55;;;;;;;10.57;42.87;102252.25;5093536;28;20047;-41
2023/03/27 03:37:52;;;;;;;4.22;1.50;;;;;;;10.58;43.03;102253.94;5093701;28;20031;-41
2023/03/27 03:40:19;;;;;;;3.95;1.10;;;;;;;10.41;44.18;102258.47;5093820;28;20024;-40
2023/03/27 03:42:48;;;;;;;2.42;1.50;;;;;;;10.44;43.34;102258.16;5093293;28;20020;-41
2023/03/27 03:45:15;;;;;;;3.03;1.00;;;;;;;10.42;43.73;102270.03;5094072;28;20020;-41
2023/03/27 03:47:43;;;;;;;1.05;0.90;;;;;;;10.37;44.49;102261.66;5093134;28;20031;-40
2023/03/27 03:50:10;;;;;;;3.80;1.00;;;;;;;10.30;44.71;102261.50;5093266;28;20032;-41
2023/03/27 03:52:36;;;;;;;4.63;1.20;;;;;;;10.32;45.26;102260.31;5092865;28;20039;-41
2023/03/27 03:55:03;;;;;;;3.80;1.27;;;;;;;10.46;45.67;102264.16;5092926;28;20158;-41
2023/03/27 03:57:30;;;;;;;3.58;1.33;;;;;;;10.34;46.20;102270.06;5073403;28;20025;-41
2023/03/27 03:59:59;;;;;;;1.63;1.00;;;;;;;10.18;46.45;102274.38;5084232;28;20032;-41
2023/03/27 04:02:29;;;;;;;2.25;1.05;;;;;;;10.11;46.62;102276.06;5092358;28;20044;-41
2023/03/27 04:04:59;;;;;;;2.47;0.90;;;;;;;10.05;46.58;102282.09;5092814;28;20039;-41
2023/03/27 04:07:34;;;;;;;5.88;1.52;;;;;;;9.94;46.72;102285.09;5091669;28;20044;-41
2023/03/27 04:10:02;;;;;;;1.40;1.10;;;;;;;9.98;47.64;102287.22;5092807;28;20107;-41
2023/03/27 04:12:29;;;;;;;3.78;1.13;;;;;;;9.87;47.50;102286.72;5092666;28;20036;-40
2023/03/27 04:14:55;;;;;;;3.38;1.33;;;;;;;9.83;47.57;102288.06;5092743;28;20028;-40
2023/03/27 04:17:25;;;;;;;3.25;1.23;;;;;;;9.80;47.77;102294.59;5092584;28;20105;-41
2023/03/27 04:19:56;;;;;;;4.50;1.15;;;;;;;9.76;47.95;102296.75;5091699;28;20024;-40
2023/03/27 04:22:22;;;;;;;4.57;1.48;;;;;;;9.64;48.39;102292.72;5092295;28;20381;-40
2023/03/27 04:24:49;;;;;;;1.90;1.10;;;;;;;9.65;48.11;102291.72;5092436;28;20495;-40
2023/03/27 04:27:17;;;;;;;2.40;1.17;;;;;;;9.76;48.76;102290.56;5092523;28;20468;-41
2023/03/27 04:29:46;;;;;;;4.07;1.27;;;;;;;9.71;48.61;102291.06;5092273;28;20028;-41
2023/03/27 04:32:18;;;;;;;4.35;2.08;;;;;;;9.76;49.07;102290.56;5095586;28;20168;-41
2023/03/27 04:34:49;;;;;;;4.43;1.90;;;;;;;9.69;49.10;102287.72;5071776;28;20099;-41
2023/03/27 04:37:17;;;;;;;7.22;2.50;;;;;;;9.15;50.77;102297.91;5072026;28;20024;-41
2023/03/27 04:39:45;;;;;;;6.95;2.92;;;;;;;9.12;50.50;102295.59;5071707;28;20029;-41
2023/03/27 04:42:14;;;;;;;8.48;2.10;;;;;;;8.34;53.08;102298.28;5071892;28;20087;-41
2023/03/27 04:44:41;;;;;;;3.22;1.50;;;;;;;8.44;53.08;102296.38;5071752;28;20033;-41
2023/03/27 04:47:08;;;;;;;5.45;1.67;;;;;;;8.21;53.50;102296.00;5071698;28;20036;-41
2023/03/27 04:49:41;;;;;;;4.30;1.65;;;;;;;7.74;55.05;102294.59;5071707;28;20021;-41
2023/03/27 04:52:09;;;;;;;5.10;1.27;;;;;;;8.12;54.02;102296.09;5071705;28;20051;-40
2023/03/27 04:54:35;;;;;;;1.98;1.17;;;;;;;8.20;53.52;102299.66;5071928;28;20031;-41
2023/03/27 04:57:02;;;;;;;4.47;1.38;;;;;;;8.49;53.06;102303.91;5071948;28;20048;-40
2023/03/27 04:59:30;;;;;;;4.75;1.45;;;;;;;8.39;53.00;102304.03;5078952;28;20468;-41
2023/03/27 05:02:03;;;;;;;3.25;1.60;;;;;;;7.94;54.04;102306.78;5089676;28;20557;-40
2023/03/27 05:04:30;;;;;;;4.03;1.80;;;;;;;7.12;56.48;102305.91;5086250;28;20030;-40
2023/03/27 05:06:59;;;;;;;4.68;1.40;;;;;;;7.41;55.90;102312.88;5090038;28;20070;-40
2023/03/27 05:09:25;;;;;;;6.78;1.52;;;;;;;7.26;56.66;102309.03;5076960;28;20533;-40
2023/03/27 05:11:52;;;;;;;3.97;1.27;;;;;;;7.58;55.56;102312.09;5075107;28;20360;-40
2023/03/27 05:14:20;;;;;;;2.55;1.25;;;;;;;7.58;55.58;102313.91;5074325;28;20035;-40
2023/03/27 05:16:50;;;;;;;6.30;1.50;;;;;;;7.08;57.46;102315.16;5088188;28;20029;-40
2023/03/27 05:19:18;;;;;;;3.30;1.67;;;;;;;6.99;58.01;102321.34;5089546;28;20387;-40
2023/03/27 05:21:45;;;;;;;5.10;1.52;;;;;;;6.92;58.66;102314.94;5096001;28;20051;-40
2023/03/27 05:24:13;;;;;;;7.65;1.67;;;;;;;6.25;59.64;102316.78;5091401;28;20085;-40
2023/03/27 05:26:39;;;;;;;2.90;1.52;;;;;;;5.89;60.94;102313.00;5091717;28;20024;-39
2023/03/27 05:29:07;;;;;;;7.15;1.70;;;;;;;6.03;60.48;102315.25;5086806;28;20051;-39
2023/03/27 05:31:35;;;;;;;2.50;1.15;;;;;;;6.07;60.46;102319.31;5073456;28;20368;-40
2023/03/27 05:34:04;;;;;;;9.50;1.83;;;;;;;6.29;59.69;102326.16;5092228;28;20028;-40
2023/03/27 05:36:31;;;;;;;3.15;1.20;;;;;;;6.44;59.29;102321.25;5106103;28;20023;-39
2023/03/27 05:38:57;;;;;;;8.18;2.45;;;;;;;5.95;60.50;102315.13;5116406;28;20110;-40
2023/03/27 05:41:24;;;;;;;7.35;1.65;;;;;;;5.59;61.63;102329.03;5115880;28;20043;-40
2023/03/27 05:43:50;;;;;;;5.75;1.55;;;;;;;5.37;62.96;102327.44;5115794;28;20031;-40
2023/03/27 05:46:17;;;;;;;4.80;1.33;;;;;;;5.45;62.94;102328.44;5115963;28;20023;-39
2023/03/27 05:48:43;;;;;;;5.88;1.48;;;;;;;5.92;61.38;102326.03;5115681;28;20031;-39
2023/03/27 05:51:10;;;;;;;11.27;1.60;;;;;;;6.11;60.41;102327.84;5115702;28;20028;-39
2023/03/27 05:53:39;;;;;;;4.22;1.25;;;;;;;6.21;59.86;102327.84;5104070;28;20071;-39
2023/03/27 05:56:07;;;;;;;2.40;1.40;;;;;;;6.35;59.33;102330.06;5095185;28;20031;-40
2023/03/27 05:58:33;;;;;;;5.57;2.40;;;;;;;6.45;59.07;102330.91;5095328;28;20100;-39
2023/03/27 06:01:01;;;;;;;10.77;3.38;;;;;;;6.43;59.00;102329.34;5095204;28;20545;-40
2023/03/27 06:03:29;;;;;;;7.07;2.65;;;;;;;6.61;58.54;102325.84;5094948;28;20070;-40
2023/03/27 06:05:59;;;;;;;5.10;2.15;;;;;;;6.08;59.76;102328.97;5087699;28;20029;-39
2023/03/27 06:08:28;;;;;;;5.90;1.70;;;;;;;5.65;60.63;102325.81;5093290;28;20085;-39
2023/03/27 06:10:54;;;;;;;5.20;1.67;;;;;;;5.17;61.67;102314.13;5095458;28;20028;-39
2023/03/27 06:13:22;;;;;;;3.60;1.42;;;;;;;4.84;62.92;102320.53;5094815;28;20024;-39
2023/03/27 06:15:52;;;;;;;5.40;2.17;;;;;;;4.92;62.85;102311.91;5091031;28;20413;-39
2023/03/27 06:18:18;;;;;;;2.30;1.20;;;;;;;5.15;61.87;102309.91;5089698;28;20028;-39
2023/03/27 06:20:45;;;;;;;5.38;2.47;;;;;;;5.47;61.09;102313.22;5093732;28;20127;-39
2023/03/27 06:23:11;;;;;;;10.07;3.30;;;;;;;5.46;60.95;102311.53;5115187;28;20384;-39
2023/03/27 06:25:38;;;;;;;8.30;2.78;;;;;;;5.18;61.82;102314.94;5112391;28;20042;-39
2023/03/27 06:28:07;;;;;;;5.50;1.70;;;;;;;5.35;61.54;102313.47;5114266;28;20032;-40
2023/03/27 06:30:34;;;;;;;6.10;1.50;;;;;;;4.76;63.07;102313.22;5107257;28;20116;-39
2023/03/27 06:33:01;;;;;;;6.13;1.75;;;;;;;4.44;64.26;102313.34;5105145;28;20024;-40
2023/03/27 06:35:30;;;;;;;2.47;1.20;;;;;;;4.58;64.07;102321.91;5113201;28;20122;-39
2023/03/27 06:38:03;;;;;;;5.65;0.90;;;;;;;4.97;62.44;102326.44;5115082;28;20020;-38
2023/03/27 06:40:31;;;;;;;3.30;1.00;;;;;;;5.23;61.79;102318.88;5111840;28;20534;-39
2023/03/27 06:43:00;;;;;;;2.65;1.05;;;;;;;5.23;61.81;102320.69;5113252;28;20020;-38
2023/03/27 06:45:41;;;;;;;3.65;0.93;;;;;;;5.14;61.78;102322.31;5103669;28;20027;-38
2023/03/27 06:48:09;;;;;;;4.05;0.95;;;;;;;5.19;61.21;102330.72;5094289;28;20047;-38
2023/03/27 06:50:36;;;;;;;2.03;0.75;;;;;;;5.31;60.65;102326.16;5094122;28;20031;-39
2023/03/27 06:53:03;;;;;;;3.15;0.80;;;;;;;5.53;59.99;102323.28;5112152;28;20384;-39
2023/03/27 06:55:31;;;;;;;1.45;0.82;;;;;;;5.54;59.28;102319.63;5101760;28;20028;-40
2023/03/27 06:58:00;;;;;;;7.53;1.10;;;;;;;4.97;60.69;102326.44;5096176;28;20032;-39
2023/03/27 07:00:34;;;;;;;3.08;1.00;;;;;;;4.62;61.81;102329.50;5104286;28;20073;-39
2023/03/27 07:03:08;;;;;;;4.07;1.13;;;;;;;4.10;63.45;102328.56;5099341;28;20052;-39
2023/03/27 07:05:36;;;;;;;3.22;1.20;;;;;;;4.17;63.89;102335.03;5091560;28;20066;-39
2023/03/27 07:08:05;;;;;;;4.70;1.40;;;;;;;4.14;63.92;102335.28;5094294;28;20430;-40
2023/03/27 07:10:32;;;;;;;7.97;1.20;;;;;;;4.34;62.95;102333.63;5093939;28;20034;-39
2023/03/27 07:12:58;;;;;;;3.40;1.10;;;;;;;3.87;64.24;102330.44;5093766;28;20052;-40
2023/03/27 07:15:25;;;;;;;4.68;1.33;;;;;;;3.76;65.14;102337.59;5093652;28;20028;-39
2023/03/27 07:18:01;;;;;;;7.25;1.50;;;;;;;3.57;65.64;102332.97;5094259;28;20027;-40
2023/03/27 07:20:29;;;;;;;3.50;1.30;;;;;;;3.55;65.68;102334.88;5093750;28;20036;-39
2023/03/27 07:22:58;;;;;;;3.05;1.40;;;;;;;3.59;65.98;102331.00;5093431;28;20020;-39
2023/03/27 07:25:25;;;;;;;6.15;1.40;;;;;;;3.49;65.41;102346.78;5093485;28;20035;-40
2023/03/27 07:27:56;;;;;;;4.60;1.17;;;;;;;3.37;65.63;102338.03;5093630;28;20045;-40
2023/03/27 07:30:22;;;;;;;2.28;1.05;;;;;;;3.36;65.58;102328.41;5093699;28;20027;-39
2023/03/27 07:32:48;;;;;;;5.40;1.13;;;;;;;3.55;65.10;102329.56;5093286;28;20024;-40
2023/03/27 07:35:15;;;;;;;3.60;1.38;;;;;;;3.73;64.74;102322.81;5101844;28;20024;-39
2023/03/27 07:37:42;;;;;;;5.78;1.38;;;;;;;3.68;64.26;102328.47;5113803;28;20095;-40
2023/03/27 07:40:12;;;;;;;2.92;1.05;;;;;;;3.61;64.30;102329.06;5113819;28;20027;-40
2023/03/27 07:42:47;;;;;;;3.95;1.00;;;;;;;3.57;64.33;102330.31;5113847;28;20076;-39
2023/03/27 07:45:13;;;;;;;4.43;1.00;;;;;;;3.47;64.68;102330.19;5113492;28;20506;-39
2023/03/27 07:47:42;;;;;;;8.00;1.23;;;;;;;3.40;64.80;102321.91;5113730;28;20156;-40
2023/03/27 07:50:13;;;;;;;2.17;1.10;;;;;;;3.33;64.54;102319.88;5113664;28;20050;-39
2023/03/27 07:52:42;;;;;;;2.22;1.00;;;;;;;3.42;63.83;102319.13;5101485;28;20426;-39
2023/03/27 07:55:16;;;;;;;3.47;1.23;;;;;;;3.55;63.52;102321.63;5092727;28;20032;-39
2023/03/27 07:57:49;;;;;;;2.50;1.00;;;;;;;3.75;63.21;102320.03;5091907;28;20446;-40
2023/03/27 08:00:17;;;;;;;4.10;1.30;;;;;;;3.74;62.54;102319.19;5091900;28;20036;-40
2023/03/27 08:02:49;;;;;;;3.08;1.00;;;;;;;3.95;62.46;102322.72;5092172;28;20480;-40
2023/03/27 08:05:16;;;;;;;3.30;1.17;;;;;;;3.92;61.99;102322.13;5090957;28;20422;-40
2023/03/27 08:07:46;;;;;;;5.07;1.15;;;;;;;4.05;61.92;102327.25;5085671;28;20077;-40
2023/03/27 08:10:14;;;;;;;4.03;0.95;;;;;;;4.16;61.15;102332.50;5092213;28;20028;-40
2023/03/27 08:12:41;;;;;;;4.35;0.95;;;;;;;3.91;62.27;102331.88;5092496;28;20494;-40
2023/03/27 08:15:08;;;;;;;3.15;0.80;;;;;;;4.04;61.74;102323.75;5100821;28;20090;-39
2023/03/27 08:17:35;;;;;;;4.10;1.20;;;;;;;3.78;61.95;102325.94;5097195;28;20028;-39
2023/03/27 08:20:03;;;;;;;1.48;0.80;;;;;;;3.55;62.68;102329.56;5090593;28;20503;-40
2023/03/27 08:22:32;;;;;;;5.78;1.25;;;;;;;3.22;63.74;102333.09;5088669;28;20495;-40
2023/03/27 08:24:58;;;;;;;4.28;1.00;;;;;;;3.24;64.35;102326.75;5091400;28;20075;-40
2023/03/27 08:27:24;;;;;;;2.40;1.00;;;;;;;3.04;64.64;102338.88;5097680;28;20024;-40
2023/03/27 08:29:51;;;;;;;4.45;1.13;;;;;;;3.12;64.66;102335.66;5092889;28;20038;-39
2023/03/27 08:32:17;;;;;;;7.28;1.42;;;;;;;3.11;64.09;102337.47;5092087;28;20078;-39
2023/03/27 08:34:44;;;;;;;3.08;1.13;;;;;;;2.96;64.63;102332.53;5092515;28;20032;-40
2023/03/27 08:37:10;;;;;;;3.85;0.95;;;;;;;2.97;64.97;102328.91;5092080;28;20028;-39
2023/03/27 08:39:37;;;;;;;7.35;1.13;;;;;;;3.13;64.59;102330.25;5092404;28;20047;-40
2023/03/27 08:42:07;;;;;;;3.80;1.00;;;;;;;3.03;64.84;102323.16;5091937;28;20024;-39
2023/03/27 08:44:35;;;;;;;4.55;0.80;;;;;;;2.94;65.26;102322.03;5111598;28;20023;-39
2023/03/27 08:47:09;;;;;;;2.47;0.90;;;;;;;2.89;65.11;102321.59;5112281;28;20023;-39
2023/03/27 08:49:45;;;;;;;5.68;1.35;;;;;;;2.84;64.80;102321.94;5112777;28;20024;-39
2023/03/27 08:52:19;;;;;;;3.15;0.77;;;;;;;2.80;65.23;102328.44;5112285;28;20387;-39
2023/03/27 08:54:57;;;;;;;3.17;1.00;;;;;;;2.95;64.53;102322.91;5112422;28;20054;-40
2023/03/27 08:57:30;;;;;;;4.18;1.15;;;;;;;2.76;64.28;102313.75;5112337;28;20026;-39
2023/03/27 09:00:01;;;;;;;2.63;0.77;;;;;;;2.64;64.93;102322.63;5106150;28;20074;-39
2023/03/27 09:02:43;;;;;;;4.72;1.10;;;;;;;2.73;64.86;102310.53;5091322;28;20054;-39
2023/03/27 09:05:22;;;;;;;3.83;0.98;;;;;;;2.66;64.93;102307.47;5090020;28;20032;-39
2023/03/27 09:08:00;;;;;;;6.40;0.93;;;;;;;2.63;65.73;102310.38;5071599;28;20415;-39
2023/03/27 09:10:48;;;;;;;1.80;1.00;;;;;;;2.65;66.05;102308.44;5071687;28;20053;-40
2023/03/27 09:13:40;;;;;;;2.65;1.10;;;;;;;2.73;66.07;102303.44;5071702;28;20093;-40
2023/03/27 09:16:17;;;;;;;1.85;0.88;;;;;;;2.70;65.69;102295.72;5071663;28;20078;-39
2023/03/27 09:18:46;;;;;;;3.38;1.20;;;;;;;2.60;66.43;102294.75;5072262;28;20029;-39
2023/03/27 09:21:16;;;;;;;4.40;1.25;;;;;;;2.53;66.36;102282.97;5091290;28;20037;-40
2023/03/27 09:23:45;;;;;;;3.00;0.93;;;;;;;2.52;66.44;102290.06;5091742;28;20039;-39
2023/03/27 09:26:16;;;;;;;3.42;1.00;;;;;;;2.54;66.61;102289.94;5091602;28;20024;-39
2023/03/27 09:28:50;;;;;;;5.75;1.17;;;;;;;2.50;67.19;102299.03;5095504;28;20063;-40
2023/03/27 09:31:31;;;;;;;3.40;1.10;;;;;;;2.80;66.40;102290.56;5104782;28;20039;-39
2023/03/27 09:34:03;;;;;;;3.90;1.10;;;;;;;2.70;66.55;102286.94;5093080;28;20042;-39
2023/03/27 09:36:30;;;;;;;5.25;1.17;;;;;;;2.44;67.64;102291.59;5098829;28;20024;-39
2023/03/27 09:39:06;;;;;;;5.18;1.30;;;;;;;2.51;67.22;102284.91;5097954;28;20024;-39
2023/03/27 09:41:47;;;;;;;3.70;1.48;;;;;;;2.44;67.74;102288.94;5090130;28;20464;-39
2023/03/27 09:44:26;;;;;;;3.05;1.08;;;;;;;2.44;67.96;102279.22;5091470;28;20028;-39
2023/03/27 09:47:03;;;;;;;2.08;1.00;;;;;;;2.58;67.50;102280.81;5091435;28;20020;-39
2023/03/27 09:49:29;;;;;;;3.08;1.08;;;;;;;2.47;67.59;102288.72;5091476;28;20052;-40
2023/03/27 09:51:58;;;;;;;5.80;1.10;;;;;;;2.29;68.35;102286.53;5104880;28;20030;-39
2023/03/27 09:54:30;;;;;;;3.25;1.42;;;;;;;2.35;68.12;102285.22;5111741;28;20463;-40
2023/03/27 09:57:05;;;;;;;2.17;1.02;;;;;;;2.34;68.74;102287.03;5111840;28;20031;-39
2023/03/27 09:59:38;;;;;;;2.15;0.40;;;;;;;2.37;68.96;102289.41;5096489;28;20027;-40
2023/03/27 10:02:28;;;;;;;4.00;1.20;;;;;;;2.34;69.67;102278.25;5090947;28;20120;-39
2023/03/27 10:04:57;;;;;;;4.47;1.35;;;;;;;2.43;69.30;102266.97;5090861;28;20036;-39
2023/03/27 10:07:25;;;;;;;5.72;0.93;;;;;;;2.41;69.35;102268.06;5088958;28;20047;-39
2023/03/27 10:10:07;;;;;;;4.35;1.20;;;;;;;2.34;70.11;102271.19;5110433;28;20521;-39
2023/03/27 10:12:35;;;;;;;3.10;1.10;;;;;;;2.58;69.67;102268.44;5111081;28;20020;-39
2023/03/27 10:15:04;;;;;;;3.60;1.10;;;;;;;2.74;68.76;102275.19;5111556;28;20055;-39
2023/03/27 10:17:39;;;;;;;2.30;1.15;;;;;;;3.02;67.84;102273.84;5113301;28;20027;-39
2023/03/27 10:20:11;;;;;;;3.45;1.38;;;;;;;2.74;68.26;102275.19;5115635;28;20036;-39
2023/03/27 10:22:41;;;;;;;3.45;1.50;;;;;;;2.38;69.96;102275.25;5114968;28;20020;-39
2023/03/27 10:25:28;;;;;;;6.55;1.98;;;;;;;2.22;70.24;102274.75;5107511;28;20081;-39
2023/03/27 10:28:21;;;;;;;2.95;1.05;;;;;;;2.22;70.32;102271.25;5094733;28;20089;-39
2023/03/27 10:30:58;;;;;;;3.65;1.30;;;;;;;2.34;70.68;102273.81;5094483;28;20024;-39
2023/03/27 10:33:35;;;;;;;4.05;1.15;;;;;;;2.54;69.66;102271.44;5094658;28;20028;-39
2023/03/27 10:36:03;;;;;;;8.88;1.35;;;;;;;2.44;69.78;102270.44;5094620;28;20031;-39
2023/03/27 10:38:31;;;;;;;2.80;1.23;;;;;;;2.51;69.92;102269.88;5094429;28;20070;-40
2023/03/27 10:40:59;;;;;;;5.03;1.45;;;;;;;2.19;70.95;102271.50;5094180;28;20035;-39
2023/03/27 10:43:39;;;;;;;5.38;1.40;;;;;;;2.06;71.47;102271.59;5092396;28;20044;-39
2023/03/27 10:46:12;;;;;;;4.30;1.40;;;;;;;2.29;71.03;102273.31;5093614;28;20031;-39
2023/03/27 10:48:59;;;;;;;4.30;1.48;;;;;;;2.47;70.61;102264.94;5092992;28;20028;-40
2023/03/27 10:51:41;;;;;;;4.05;1.38;;;;;;;2.33;70.20;102266.84;5094471;28;20060;-39
2023/03/27 10:54:25;;;;;;;3.08;1.15;;;;;;;2.21;71.39;102265.13;5093655;28;20038;-39
2023/03/27 10:57:07;;;;;;;5.90;1.58;;;;;;;2.20;71.86;102254.69;5094042;28;20042;-39
2023/03/27 10:59:54;;;;;;;4.60;1.52;;;;;;;2.11;72.27;102257.09;5094659;28;20652;-39
2023/03/27 11:02:56;;;;;;;4.43;1.35;;;;;;;2.06;72.69;102255.75;5093685;28;20040;-39
2023/03/27 11:05:37;;;;;;;4.82;1.52;;;;;;;2.43;71.56;102245.81;5088412;28;20040;-39
2023/03/27 11:08:12;;;;;;;4.05;1.30;;;;;;;2.49;71.51;102249.81;5074192;28;20107;-39
2023/03/27 11:10:44;;;;;;;2.75;0.82;;;;;;;2.65;70.87;102251.13;5073486;28;20552;-39
2023/03/27 11:13:19;;;;;;;3.78;1.40;;;;;;;2.69;70.67;102251.75;5076561;28;20024;-39
2023/03/27 11:15:52;;;;;;;4.03;1.40;;;;;;;2.73;70.66;102247.91;5094500;28;20031;-40
2023/03/27 11:18:24;;;;;;;5.13;1.30;;;;;;;2.37;71.19;102247.16;5093834;28;20398;-39
2023/03/27 11:21:11;;;;;;;5.43;1.40;;;;;;;2.46;71.64;102248.25;5093497;28;20024;-40
2023/03/27 11:23:44;;;;;;;6.47;1.30;;;;;;;2.59;71.17;102240.19;5093956;28;20074;-39
2023/03/27 11:26:14;;;;;;;4.32;1.15;;;;;;;2.79;70.33;102242.13;5093788;28;20056;-39
2023/03/27 11:29:21;;;;;;;3.28;1.38;;;;;;;2.72;70.60;102235.66;5093088;28;20496;-40
2023/03/27 11:31:53;;;;;;;2.88;1.20;;;;;;;2.83;70.39;102232.13;5093850;28;20472;-40
2023/03/27 11:34:36;;;;;;;5.30;1.70;;;;;;;2.44;71.82;102230.81;5110870;28;20479;-39
2023/03/27 11:37:30;;;;;;;7.40;1.35;;;;;;;2.12;73.63;102239.44;5113959;28;20501;-39
2023/03/27 11:40:08;;;;;;;8.02;1.30;;;;;;;2.07;74.04;102231.00;5112570;28;20024;-39
2023/03/27 11:42:41;;;;;;;3.63;1.30;;;;;;;2.20;73.60;102234.38;5113614;28;20030;-39
2023/03/27 11:45:16;;;;;;;6.63;1.40;;;;;;;2.42;72.67;102232.75;5113711;28;20038;-40
2023/03/27 11:47:52;;;;;;;5.75;1.35;;;;;;;2.61;72.17;102231.22;5113801;28;20487;-39
2023/03/27 11:50:18;;;;;;;3.00;1.13;;;;;;;2.85;71.48;102233.72;5104354;28;20040;-40
2023/03/27 11:53:15;;;;;;;2.90;1.35;;;;;;;2.94;70.94;102228.63;5092834;28;20115;-40
2023/03/27 11:55:55;;;;;;;2.35;1.10;;;;;;;3.00;70.54;102230.78;5098714;28;20024;-40